sensor_id;sensor_type;location;lat;lon;timestamp;P1;durP1;ratioP1;P2;durP2;ratioP2
11651;SDS011;5882;48.818;9.114;2022-12-19T00:01:04;15.27;;;9.10;;
11651;SDS011;5882;48.818;9.114;2022-12-19T00:03:33;15.20;;;9.27;;
11651;SDS011;5882;48.818;9.114;2022-12-19T00:06:00;15.23;;;8.50;;
11651;SDS011;5882;48.818;9.114;2022-12-19T00:08:27;14.80;;;7.87;;
11651;SDS011;5882;48.818;9.114;2022-12-19T00:10:54;17.23;;;9.37;;
11651;SDS011;5882;48.818;9.114;2022-12-19T00:13:21;17.83;;;8.67;;
11651;SDS011;5882;48.818;9.114;2022-12-19T00:15:48;13.83;;;8.13;;
11651;SDS011;5882;48.818;9.114;2022-12-19T00:18:14;15.23;;;8.03;;
11651;SDS011;5882;48.818;9.114;2022-12-19T00:20:42;15.90;;;9.20;;
11651;SDS011;5882;48.818;9.114;2022-12-19T00:23:09;14.60;;;7.23;;
11651;SDS011;5882;48.818;9.114;2022-12-19T00:25:36;15.73;;;9.43;;
11651;SDS011;5882;48.818;9.114;2022-12-19T00:28:03;17.73;;;8.63;;
11651;SDS011;5882;48.818;9.114;2022-12-19T00:30:29;17.47;;;8.93;;
11651;SDS011;5882;48.818;9.114;2022-12-19T00:32:56;17.47;;;10.50;;
11651;SDS011;5882;48.818;9.114;2022-12-19T00:35:23;15.63;;;8.47;;
11651;SDS011;5882;48.818;9.114;2022-12-19T00:37:51;12.53;;;8.33;;
11651;SDS011;5882;48.818;9.114;2022-12-19T00:40:18;14.27;;;8.20;;
11651;SDS011;5882;48.818;9.114;2022-12-19T00:42:44;15.40;;;8.87;;
11651;SDS011;5882;48.818;9.114;2022-12-19T00:45:11;16.47;;;8.73;;
11651;SDS011;5882;48.818;9.114;2022-12-19T00:47:38;19.90;;;9.10;;
11651;SDS011;5882;48.818;9.114;2022-12-19T00:50:05;18.43;;;8.63;;
11651;SDS011;5882;48.818;9.114;2022-12-19T00:52:31;16.03;;;8.37;;
11651;SDS011;5882;48.818;9.114;2022-12-19T00:54:59;12.63;;;7.87;;
11651;SDS011;5882;48.818;9.114;2022-12-19T00:57:26;15.37;;;9.17;;
11651;SDS011;5882;48.818;9.114;2022-12-19T00:59:53;13.90;;;8.57;;
11651;SDS011;5882;48.818;9.114;2022-12-19T01:02:19;15.07;;;9.03;;
11651;SDS011;5882;48.818;9.114;2022-12-19T01:04:46;12.40;;;8.87;;
11651;SDS011;5882;48.818;9.114;2022-12-19T01:07:13;16.33;;;8.70;;
11651;SDS011;5882;48.818;9.114;2022-12-19T01:09:40;14.73;;;8.30;;
11651;SDS011;5882;48.818;9.114;2022-12-19T01:12:09;11.87;;;6.87;;
11651;SDS011;5882;48.818;9.114;2022-12-19T01:14:53;16.77;;;7.47;;
11651;SDS011;5882;48.818;9.114;2022-12-19T01:17:20;17.50;;;8.60;;
11651;SDS011;5882;48.818;9.114;2022-12-19T01:19:46;14.93;;;8.63;;
11651;SDS011;5882;48.818;9.114;2022-12-19T01:22:13;15.63;;;7.70;;
11651;SDS011;5882;48.818;9.114;2022-12-19T01:24:39;15.87;;;8.93;;
11651;SDS011;5882;48.818;9.114;2022-12-19T01:27:08;15.27;;;8.73;;
11651;SDS011;5882;48.818;9.114;2022-12-19T01:29:34;14.60;;;7.63;;
11651;SDS011;5882;48.818;9.114;2022-12-19T01:32:01;14.53;;;9.27;;
11651;SDS011;5882;48.818;9.114;2022-12-19T01:34:28;14.93;;;9.17;;
11651;SDS011;5882;48.818;9.114;2022-12-19T01:36:55;12.17;;;8.00;;
11651;SDS011;5882;48.818;9.114;2022-12-19T01:39:21;16.70;;;9.23;;
11651;SDS011;5882;48.818;9.114;2022-12-19T01:41:48;13.00;;;8.00;;
11651;SDS011;5882;48.818;9.114;2022-12-19T01:44:16;15.07;;;8.50;;
11651;SDS011;5882;48.818;9.114;2022-12-19T01:46:43;13.87;;;7.97;;
11651;SDS011;5882;48.818;9.114;2022-12-19T01:49:12;15.50;;;8.17;;
11651;SDS011;5882;48.818;9.114;2022-12-19T01:51:40;15.00;;;8.23;;
11651;SDS011;5882;48.818;9.114;2022-12-19T01:54:09;16.70;;;8.10;;
11651;SDS011;5882;48.818;9.114;2022-12-19T01:56:37;18.43;;;8.13;;
11651;SDS011;5882;48.818;9.114;2022-12-19T01:59:05;14.50;;;8.57;;
11651;SDS011;5882;48.818;9.114;2022-12-19T02:01:34;20.93;;;9.80;;
11651;SDS011;5882;48.818;9.114;2022-12-19T02:04:01;14.40;;;8.13;;
11651;SDS011;5882;48.818;9.114;2022-12-19T02:06:29;18.13;;;9.10;;
11651;SDS011;5882;48.818;9.114;2022-12-19T02:08:56;16.00;;;8.97;;
11651;SDS011;5882;48.818;9.114;2022-12-19T02:11:23;14.07;;;8.47;;
11651;SDS011;5882;48.818;9.114;2022-12-19T02:13:49;18.67;;;10.07;;
11651;SDS011;5882;48.818;9.114;2022-12-19T02:16:19;16.13;;;8.20;;
11651;SDS011;5882;48.818;9.114;2022-12-19T02:18:51;13.97;;;8.60;;
11651;SDS011;5882;48.818;9.114;2022-12-19T02:21:24;16.27;;;8.33;;
11651;SDS011;5882;48.818;9.114;2022-12-19T02:26:47;14.90;;;8.77;;
11651;SDS011;5882;48.818;9.114;2022-12-19T02:29:19;14.20;;;8.60;;
11651;SDS011;5882;48.818;9.114;2022-12-19T02:31:49;12.63;;;8.17;;
11651;SDS011;5882;48.818;9.114;2022-12-19T02:34:20;13.77;;;8.63;;
11651;SDS011;5882;48.818;9.114;2022-12-19T02:36:49;15.03;;;8.37;;
11651;SDS011;5882;48.818;9.114;2022-12-19T02:39:21;16.00;;;9.33;;
11651;SDS011;5882;48.818;9.114;2022-12-19T02:41:53;14.43;;;7.57;;
11651;SDS011;5882;48.818;9.114;2022-12-19T02:44:22;16.20;;;9.53;;
11651;SDS011;5882;48.818;9.114;2022-12-19T02:46:51;14.30;;;9.03;;
11651;SDS011;5882;48.818;9.114;2022-12-19T02:49:18;12.87;;;8.13;;
11651;SDS011;5882;48.818;9.114;2022-12-19T02:51:45;14.23;;;8.50;;
11651;SDS011;5882;48.818;9.114;2022-12-19T02:54:12;12.67;;;8.03;;
11651;SDS011;5882;48.818;9.114;2022-12-19T02:56:40;17.73;;;8.40;;
11651;SDS011;5882;48.818;9.114;2022-12-19T02:59:13;16.37;;;8.30;;
11651;SDS011;5882;48.818;9.114;2022-12-19T03:01:45;12.10;;;7.50;;
11651;SDS011;5882;48.818;9.114;2022-12-19T03:04:16;16.07;;;8.77;;
11651;SDS011;5882;48.818;9.114;2022-12-19T03:06:46;13.33;;;7.40;;
11651;SDS011;5882;48.818;9.114;2022-12-19T03:09:15;13.77;;;8.07;;
11651;SDS011;5882;48.818;9.114;2022-12-19T03:11:45;11.30;;;7.23;;
11651;SDS011;5882;48.818;9.114;2022-12-19T03:14:13;13.53;;;8.70;;
11651;SDS011;5882;48.818;9.114;2022-12-19T03:16:41;12.63;;;7.53;;
11651;SDS011;5882;48.818;9.114;2022-12-19T03:19:09;13.57;;;8.07;;
11651;SDS011;5882;48.818;9.114;2022-12-19T03:21:39;17.40;;;8.83;;
11651;SDS011;5882;48.818;9.114;2022-12-19T03:24:07;13.30;;;8.10;;
11651;SDS011;5882;48.818;9.114;2022-12-19T03:26:35;14.60;;;8.47;;
11651;SDS011;5882;48.818;9.114;2022-12-19T03:29:04;15.47;;;7.90;;
11651;SDS011;5882;48.818;9.114;2022-12-19T03:31:33;14.03;;;7.97;;
11651;SDS011;5882;48.818;9.114;2022-12-19T03:34:02;14.37;;;8.57;;
11651;SDS011;5882;48.818;9.114;2022-12-19T03:36:30;10.83;;;8.10;;
11651;SDS011;5882;48.818;9.114;2022-12-19T03:39:00;14.77;;;7.53;;
11651;SDS011;5882;48.818;9.114;2022-12-19T03:41:28;13.03;;;8.03;;
11651;SDS011;5882;48.818;9.114;2022-12-19T03:44:13;16.97;;;9.47;;
11651;SDS011;5882;48.818;9.114;2022-12-19T03:46:41;13.70;;;8.70;;
11651;SDS011;5882;48.818;9.114;2022-12-19T03:49:10;17.40;;;9.90;;
11651;SDS011;5882;48.818;9.114;2022-12-19T03:51:39;16.30;;;9.77;;
11651;SDS011;5882;48.818;9.114;2022-12-19T03:54:10;14.63;;;8.60;;
11651;SDS011;5882;48.818;9.114;2022-12-19T03:56:39;12.60;;;8.27;;
11651;SDS011;5882;48.818;9.114;2022-12-19T03:59:08;12.97;;;9.13;;
11651;SDS011;5882;48.818;9.114;2022-12-19T04:01:35;16.80;;;7.73;;
11651;SDS011;5882;48.818;9.114;2022-12-19T04:04:03;13.10;;;8.27;;
11651;SDS011;5882;48.818;9.114;2022-12-19T04:06:31;14.57;;;8.27;;
11651;SDS011;5882;48.818;9.114;2022-12-19T04:09:06;15.23;;;8.63;;
11651;SDS011;5882;48.818;9.114;2022-12-19T04:11:39;11.83;;;7.57;;
11651;SDS011;5882;48.818;9.114;2022-12-19T04:14:07;14.73;;;8.70;;
11651;SDS011;5882;48.818;9.114;2022-12-19T04:16:37;10.83;;;7.53;;
11651;SDS011;5882;48.818;9.114;2022-12-19T04:19:14;11.73;;;7.23;;
11651;SDS011;5882;48.818;9.114;2022-12-19T04:21:44;12.73;;;7.30;;
11651;SDS011;5882;48.818;9.114;2022-12-19T04:24:15;14.13;;;8.60;;
11651;SDS011;5882;48.818;9.114;2022-12-19T04:26:46;15.30;;;7.90;;
11651;SDS011;5882;48.818;9.114;2022-12-19T04:29:14;13.60;;;8.17;;
11651;SDS011;5882;48.818;9.114;2022-12-19T04:31:41;15.47;;;8.07;;
11651;SDS011;5882;48.818;9.114;2022-12-19T04:34:09;13.80;;;7.83;;
11651;SDS011;5882;48.818;9.114;2022-12-19T04:36:35;17.87;;;7.67;;
11651;SDS011;5882;48.818;9.114;2022-12-19T04:39:02;16.00;;;8.43;;
11651;SDS011;5882;48.818;9.114;2022-12-19T04:41:29;15.60;;;8.07;;
11651;SDS011;5882;48.818;9.114;2022-12-19T04:43:57;17.63;;;8.60;;
11651;SDS011;5882;48.818;9.114;2022-12-19T04:46:24;12.40;;;7.07;;
11651;SDS011;5882;48.818;9.114;2022-12-19T04:48:50;14.27;;;7.87;;
11651;SDS011;5882;48.818;9.114;2022-12-19T04:51:17;12.43;;;7.33;;
11651;SDS011;5882;48.818;9.114;2022-12-19T04:53:44;10.83;;;6.40;;
11651;SDS011;5882;48.818;9.114;2022-12-19T04:56:11;15.33;;;7.90;;
11651;SDS011;5882;48.818;9.114;2022-12-19T04:58:38;10.63;;;7.20;;
11651;SDS011;5882;48.818;9.114;2022-12-19T05:01:07;11.37;;;7.00;;
11651;SDS011;5882;48.818;9.114;2022-12-19T05:03:34;13.70;;;7.20;;
11651;SDS011;5882;48.818;9.114;2022-12-19T05:06:02;16.73;;;8.03;;
11651;SDS011;5882;48.818;9.114;2022-12-19T05:08:28;16.60;;;8.37;;
11651;SDS011;5882;48.818;9.114;2022-12-19T05:10:57;14.50;;;8.67;;
11651;SDS011;5882;48.818;9.114;2022-12-19T05:13:24;13.30;;;7.37;;
11651;SDS011;5882;48.818;9.114;2022-12-19T05:15:54;13.90;;;8.20;;
11651;SDS011;5882;48.818;9.114;2022-12-19T05:18:24;11.67;;;7.70;;
11651;SDS011;5882;48.818;9.114;2022-12-19T05:20:51;11.70;;;7.23;;
11651;SDS011;5882;48.818;9.114;2022-12-19T05:23:19;9.93;;;6.17;;
11651;SDS011;5882;48.818;9.114;2022-12-19T05:25:46;12.10;;;6.37;;
11651;SDS011;5882;48.818;9.114;2022-12-19T05:28:13;11.00;;;6.07;;
11651;SDS011;5882;48.818;9.114;2022-12-19T05:30:40;11.17;;;6.77;;
11651;SDS011;5882;48.818;9.114;2022-12-19T05:33:07;11.90;;;5.90;;
11651;SDS011;5882;48.818;9.114;2022-12-19T05:35:44;10.27;;;5.80;;
11651;SDS011;5882;48.818;9.114;2022-12-19T05:38:11;10.07;;;6.33;;
11651;SDS011;5882;48.818;9.114;2022-12-19T05:40:38;8.70;;;5.60;;
11651;SDS011;5882;48.818;9.114;2022-12-19T05:43:06;11.73;;;6.13;;
11651;SDS011;5882;48.818;9.114;2022-12-19T05:45:33;9.80;;;5.30;;
11651;SDS011;5882;48.818;9.114;2022-12-19T05:48:03;12.63;;;6.73;;
11651;SDS011;5882;48.818;9.114;2022-12-19T05:50:33;9.00;;;5.57;;
11651;SDS011;5882;48.818;9.114;2022-12-19T05:53:05;10.90;;;6.37;;
11651;SDS011;5882;48.818;9.114;2022-12-19T05:55:32;8.87;;;5.33;;
11651;SDS011;5882;48.818;9.114;2022-12-19T05:58:01;13.17;;;5.93;;
11651;SDS011;5882;48.818;9.114;2022-12-19T06:00:30;10.40;;;6.30;;
11651;SDS011;5882;48.818;9.114;2022-12-19T06:02:57;13.40;;;6.70;;
11651;SDS011;5882;48.818;9.114;2022-12-19T06:05:25;9.57;;;5.67;;
11651;SDS011;5882;48.818;9.114;2022-12-19T06:07:54;10.87;;;6.57;;
11651;SDS011;5882;48.818;9.114;2022-12-19T06:10:26;12.17;;;6.70;;
11651;SDS011;5882;48.818;9.114;2022-12-19T06:12:56;11.20;;;5.87;;
11651;SDS011;5882;48.818;9.114;2022-12-19T06:15:26;8.43;;;5.17;;
11651;SDS011;5882;48.818;9.114;2022-12-19T06:17:55;10.03;;;5.97;;
11651;SDS011;5882;48.818;9.114;2022-12-19T06:20:28;9.57;;;5.50;;
11651;SDS011;5882;48.818;9.114;2022-12-19T06:22:55;6.53;;;4.70;;
11651;SDS011;5882;48.818;9.114;2022-12-19T06:25:21;12.10;;;6.37;;
11651;SDS011;5882;48.818;9.114;2022-12-19T06:27:50;7.33;;;5.07;;
11651;SDS011;5882;48.818;9.114;2022-12-19T06:30:16;9.37;;;6.33;;
11651;SDS011;5882;48.818;9.114;2022-12-19T06:32:43;10.43;;;6.30;;
11651;SDS011;5882;48.818;9.114;2022-12-19T06:35:13;13.00;;;6.83;;
11651;SDS011;5882;48.818;9.114;2022-12-19T06:37:39;10.50;;;5.77;;
11651;SDS011;5882;48.818;9.114;2022-12-19T06:40:09;9.60;;;6.13;;
11651;SDS011;5882;48.818;9.114;2022-12-19T06:42:58;9.83;;;6.03;;
11651;SDS011;5882;48.818;9.114;2022-12-19T06:45:24;11.60;;;5.37;;
11651;SDS011;5882;48.818;9.114;2022-12-19T06:47:51;10.37;;;5.60;;
11651;SDS011;5882;48.818;9.114;2022-12-19T06:50:17;7.27;;;4.77;;
11651;SDS011;5882;48.818;9.114;2022-12-19T06:52:44;9.20;;;5.70;;
11651;SDS011;5882;48.818;9.114;2022-12-19T06:55:10;7.93;;;4.93;;
11651;SDS011;5882;48.818;9.114;2022-12-19T06:57:37;9.97;;;5.87;;
11651;SDS011;5882;48.818;9.114;2022-12-19T07:00:12;10.20;;;5.93;;
11651;SDS011;5882;48.818;9.114;2022-12-19T07:02:38;7.43;;;5.33;;
11651;SDS011;5882;48.818;9.114;2022-12-19T07:05:09;11.07;;;5.43;;
11651;SDS011;5882;48.818;9.114;2022-12-19T07:07:38;9.60;;;5.60;;
11651;SDS011;5882;48.818;9.114;2022-12-19T07:10:08;8.85;;;5.38;;
11651;SDS011;5882;48.818;9.114;2022-12-19T07:26:33;12.77;;;6.40;;
11651;SDS011;5882;48.818;9.114;2022-12-19T07:29:00;11.30;;;5.73;;
11651;SDS011;5882;48.818;9.114;2022-12-19T07:31:27;12.83;;;7.30;;
11651;SDS011;5882;48.818;9.114;2022-12-19T07:33:54;11.70;;;6.60;;
11651;SDS011;5882;48.818;9.114;2022-12-19T07:36:22;11.63;;;6.47;;
11651;SDS011;5882;48.818;9.114;2022-12-19T07:38:50;11.43;;;6.70;;
11651;SDS011;5882;48.818;9.114;2022-12-19T07:41:17;10.53;;;7.00;;
11651;SDS011;5882;48.818;9.114;2022-12-19T07:43:56;13.77;;;6.73;;
11651;SDS011;5882;48.818;9.114;2022-12-19T07:53:30;10.83;;;5.97;;
11651;SDS011;5882;48.818;9.114;2022-12-19T07:55:57;11.43;;;6.57;;
11651;SDS011;5882;48.818;9.114;2022-12-19T07:58:36;12.57;;;6.97;;
11651;SDS011;5882;48.818;9.114;2022-12-19T08:01:10;11.50;;;6.67;;
11651;SDS011;5882;48.818;9.114;2022-12-19T08:03:37;11.83;;;6.30;;
11651;SDS011;5882;48.818;9.114;2022-12-19T08:06:06;9.47;;;6.67;;
11651;SDS011;5882;48.818;9.114;2022-12-19T08:08:33;13.63;;;6.43;;
11651;SDS011;5882;48.818;9.114;2022-12-19T08:11:05;13.07;;;6.63;;
11651;SDS011;5882;48.818;9.114;2022-12-19T08:13:32;11.90;;;7.33;;
11651;SDS011;5882;48.818;9.114;2022-12-19T08:16:02;11.80;;;6.73;;
11651;SDS011;5882;48.818;9.114;2022-12-19T08:18:30;14.07;;;7.97;;
11651;SDS011;5882;48.818;9.114;2022-12-19T08:20:57;12.03;;;6.80;;
11651;SDS011;5882;48.818;9.114;2022-12-19T08:23:24;13.83;;;7.53;;
11651;SDS011;5882;48.818;9.114;2022-12-19T08:26:15;9.33;;;6.37;;
11651;SDS011;5882;48.818;9.114;2022-12-19T08:29:00;13.48;;;6.75;;
11651;SDS011;5882;48.818;9.114;2022-12-19T08:31:48;11.93;;;7.17;;
11651;SDS011;5882;48.818;9.114;2022-12-19T08:34:16;15.57;;;7.77;;
11651;SDS011;5882;48.818;9.114;2022-12-19T08:36:42;15.37;;;8.50;;
11651;SDS011;5882;48.818;9.114;2022-12-19T08:39:09;11.50;;;7.43;;
11651;SDS011;5882;48.818;9.114;2022-12-19T08:41:37;13.33;;;7.13;;
11651;SDS011;5882;48.818;9.114;2022-12-19T08:44:03;15.80;;;8.23;;
11651;SDS011;5882;48.818;9.114;2022-12-19T08:46:30;12.73;;;7.97;;
11651;SDS011;5882;48.818;9.114;2022-12-19T08:48:57;12.45;;;6.93;;
11651;SDS011;5882;48.818;9.114;2022-12-19T08:51:25;11.75;;;6.82;;
11651;SDS011;5882;48.818;9.114;2022-12-19T08:53:52;10.57;;;6.18;;
11651;SDS011;5882;48.818;9.114;2022-12-19T08:56:19;9.20;;;6.83;;
11651;SDS011;5882;48.818;9.114;2022-12-19T08:58:46;9.37;;;4.87;;
11651;SDS011;5882;48.818;9.114;2022-12-19T09:01:14;10.50;;;6.20;;
11651;SDS011;5882;48.818;9.114;2022-12-19T09:03:43;9.48;;;6.22;;
11651;SDS011;5882;48.818;9.114;2022-12-19T09:06:10;10.50;;;6.03;;
11651;SDS011;5882;48.818;9.114;2022-12-19T09:08:39;8.57;;;5.15;;
11651;SDS011;5882;48.818;9.114;2022-12-19T09:11:06;6.85;;;4.95;;
11651;SDS011;5882;48.818;9.114;2022-12-19T09:13:33;8.60;;;5.28;;
11651;SDS011;5882;48.818;9.114;2022-12-19T09:16:01;6.82;;;4.85;;
11651;SDS011;5882;48.818;9.114;2022-12-19T09:18:28;10.60;;;6.00;;
11651;SDS011;5882;48.818;9.114;2022-12-19T09:20:55;7.80;;;4.80;;
11651;SDS011;5882;48.818;9.114;2022-12-19T09:23:23;7.43;;;4.70;;
11651;SDS011;5882;48.818;9.114;2022-12-19T09:25:55;8.52;;;5.28;;
11651;SDS011;5882;48.818;9.114;2022-12-19T09:28:22;9.18;;;5.05;;
11651;SDS011;5882;48.818;9.114;2022-12-19T09:30:53;7.72;;;4.32;;
11651;SDS011;5882;48.818;9.114;2022-12-19T09:33:23;8.05;;;5.18;;
11651;SDS011;5882;48.818;9.114;2022-12-19T09:35:50;8.55;;;6.15;;
11651;SDS011;5882;48.818;9.114;2022-12-19T09:38:17;7.80;;;4.68;;
11651;SDS011;5882;48.818;9.114;2022-12-19T09:40:48;9.02;;;6.60;;
11651;SDS011;5882;48.818;9.114;2022-12-19T09:43:21;8.52;;;5.72;;
11651;SDS011;5882;48.818;9.114;2022-12-19T09:45:57;7.82;;;5.38;;
11651;SDS011;5882;48.818;9.114;2022-12-19T09:48:28;6.63;;;5.18;;
11651;SDS011;5882;48.818;9.114;2022-12-19T09:50:55;11.00;;;5.65;;
11651;SDS011;5882;48.818;9.114;2022-12-19T09:53:26;7.40;;;5.13;;
11651;SDS011;5882;48.818;9.114;2022-12-19T09:55:55;6.03;;;4.40;;
11651;SDS011;5882;48.818;9.114;2022-12-19T09:58:33;7.10;;;5.05;;
11651;SDS011;5882;48.818;9.114;2022-12-19T10:01:03;6.72;;;4.75;;
11651;SDS011;5882;48.818;9.114;2022-12-19T10:03:38;7.43;;;4.63;;
11651;SDS011;5882;48.818;9.114;2022-12-19T10:06:11;7.32;;;4.90;;
11651;SDS011;5882;48.818;9.114;2022-12-19T10:08:39;8.93;;;4.82;;
11651;SDS011;5882;48.818;9.114;2022-12-19T10:11:08;7.22;;;5.20;;
11651;SDS011;5882;48.818;9.114;2022-12-19T10:13:42;7.05;;;5.20;;
11651;SDS011;5882;48.818;9.114;2022-12-19T10:16:11;6.57;;;4.85;;
11651;SDS011;5882;48.818;9.114;2022-12-19T10:18:44;7.72;;;5.05;;
11651;SDS011;5882;48.818;9.114;2022-12-19T10:21:17;9.32;;;4.75;;
11651;SDS011;5882;48.818;9.114;2022-12-19T10:24:00;6.03;;;4.63;;
11651;SDS011;5882;48.818;9.114;2022-12-19T10:26:34;8.25;;;4.47;;
11651;SDS011;5882;48.818;9.114;2022-12-19T10:29:06;7.63;;;4.75;;
11651;SDS011;5882;48.818;9.114;2022-12-19T10:31:36;6.93;;;4.88;;
11651;SDS011;5882;48.818;9.114;2022-12-19T10:34:06;10.00;;;5.82;;
11651;SDS011;5882;48.818;9.114;2022-12-19T10:36:39;8.25;;;5.75;;
11651;SDS011;5882;48.818;9.114;2022-12-19T10:39:13;8.05;;;5.32;;
11651;SDS011;5882;48.818;9.114;2022-12-19T10:41:42;9.52;;;5.65;;
11651;SDS011;5882;48.818;9.114;2022-12-19T10:44:11;10.25;;;5.80;;
11651;SDS011;5882;48.818;9.114;2022-12-19T10:46:40;18.75;;;11.35;;
11651;SDS011;5882;48.818;9.114;2022-12-19T10:49:10;13.23;;;8.18;;
11651;SDS011;5882;48.818;9.114;2022-12-19T10:51:39;8.88;;;6.28;;
11651;SDS011;5882;48.818;9.114;2022-12-19T10:56:47;7.30;;;5.20;;
11651;SDS011;5882;48.818;9.114;2022-12-19T10:59:16;8.90;;;5.13;;
11651;SDS011;5882;48.818;9.114;2022-12-19T11:01:43;9.73;;;5.25;;
11651;SDS011;5882;48.818;9.114;2022-12-19T11:04:12;8.18;;;5.28;;
11651;SDS011;5882;48.818;9.114;2022-12-19T11:06:42;7.38;;;5.47;;
11651;SDS011;5882;48.818;9.114;2022-12-19T11:12:04;9.75;;;5.53;;
11651;SDS011;5882;48.818;9.114;2022-12-19T11:14:38;9.52;;;5.63;;
11651;SDS011;5882;48.818;9.114;2022-12-19T11:17:35;7.55;;;5.32;;
11651;SDS011;5882;48.818;9.114;2022-12-19T11:20:10;7.43;;;5.05;;
11651;SDS011;5882;48.818;9.114;2022-12-19T11:22:36;8.27;;;5.55;;
11651;SDS011;5882;48.818;9.114;2022-12-19T11:25:13;10.50;;;5.32;;
11651;SDS011;5882;48.818;9.114;2022-12-19T11:27:41;9.38;;;5.75;;
11651;SDS011;5882;48.818;9.114;2022-12-19T11:30:19;7.90;;;5.28;;
11651;SDS011;5882;48.818;9.114;2022-12-19T11:32:46;8.15;;;5.50;;
11651;SDS011;5882;48.818;9.114;2022-12-19T11:35:15;11.05;;;5.93;;
11651;SDS011;5882;48.818;9.114;2022-12-19T11:37:43;8.18;;;5.47;;
11651;SDS011;5882;48.818;9.114;2022-12-19T11:40:13;9.02;;;5.75;;
11651;SDS011;5882;48.818;9.114;2022-12-19T11:42:44;9.77;;;5.65;;
11651;SDS011;5882;48.818;9.114;2022-12-19T11:45:16;9.00;;;5.40;;
11651;SDS011;5882;48.818;9.114;2022-12-19T11:47:49;7.97;;;5.38;;
11651;SDS011;5882;48.818;9.114;2022-12-19T11:50:18;9.52;;;6.00;;
11651;SDS011;5882;48.818;9.114;2022-12-19T11:52:48;10.07;;;6.10;;
11651;SDS011;5882;48.818;9.114;2022-12-19T11:55:19;10.18;;;5.75;;
11651;SDS011;5882;48.818;9.114;2022-12-19T11:57:47;11.13;;;5.90;;
11651;SDS011;5882;48.818;9.114;2022-12-19T12:00:15;10.50;;;6.30;;
11651;SDS011;5882;48.818;9.114;2022-12-19T12:02:52;8.68;;;5.80;;
11651;SDS011;5882;48.818;9.114;2022-12-19T12:11:01;7.45;;;5.55;;
11651;SDS011;5882;48.818;9.114;2022-12-19T12:13:46;6.70;;;5.22;;
11651;SDS011;5882;48.818;9.114;2022-12-19T12:16:16;8.02;;;5.30;;
11651;SDS011;5882;48.818;9.114;2022-12-19T12:18:54;8.70;;;5.78;;
11651;SDS011;5882;48.818;9.114;2022-12-19T12:21:25;11.60;;;5.70;;
11651;SDS011;5882;48.818;9.114;2022-12-19T12:23:58;7.38;;;5.35;;
11651;SDS011;5882;48.818;9.114;2022-12-19T12:26:28;5.47;;;4.28;;
11651;SDS011;5882;48.818;9.114;2022-12-19T12:29:02;7.68;;;5.38;;
11651;SDS011;5882;48.818;9.114;2022-12-19T12:31:35;10.07;;;5.82;;
11651;SDS011;5882;48.818;9.114;2022-12-19T12:34:11;7.65;;;5.00;;
11651;SDS011;5882;48.818;9.114;2022-12-19T12:36:41;6.93;;;4.88;;
11651;SDS011;5882;48.818;9.114;2022-12-19T12:39:10;7.65;;;5.03;;
11651;SDS011;5882;48.818;9.114;2022-12-19T12:41:40;6.95;;;5.18;;
11651;SDS011;5882;48.818;9.114;2022-12-19T12:44:27;8.52;;;5.05;;
11651;SDS011;5882;48.818;9.114;2022-12-19T12:46:58;8.63;;;5.70;;
11651;SDS011;5882;48.818;9.114;2022-12-19T12:49:37;8.15;;;6.38;;
11651;SDS011;5882;48.818;9.114;2022-12-19T12:52:08;8.57;;;5.50;;
11651;SDS011;5882;48.818;9.114;2022-12-19T12:54:37;9.85;;;5.35;;
11651;SDS011;5882;48.818;9.114;2022-12-19T12:57:13;8.65;;;5.10;;
11651;SDS011;5882;48.818;9.114;2022-12-19T12:59:43;8.00;;;5.05;;
11651;SDS011;5882;48.818;9.114;2022-12-19T13:02:12;7.05;;;5.30;;
11651;SDS011;5882;48.818;9.114;2022-12-19T13:04:42;6.95;;;5.25;;
11651;SDS011;5882;48.818;9.114;2022-12-19T13:07:26;7.28;;;4.45;;
11651;SDS011;5882;48.818;9.114;2022-12-19T13:10:06;5.22;;;4.55;;
11651;SDS011;5882;48.818;9.114;2022-12-19T13:12:51;5.70;;;4.90;;
11651;SDS011;5882;48.818;9.114;2022-12-19T13:15:34;7.95;;;5.28;;
11651;SDS011;5882;48.818;9.114;2022-12-19T13:18:11;7.43;;;4.82;;
11651;SDS011;5882;48.818;9.114;2022-12-19T13:20:51;7.80;;;5.60;;
11651;SDS011;5882;48.818;9.114;2022-12-19T13:23:41;6.35;;;4.28;;
11651;SDS011;5882;48.818;9.114;2022-12-19T13:26:17;5.07;;;3.47;;
11651;SDS011;5882;48.818;9.114;2022-12-19T13:28:46;5.03;;;3.10;;
11651;SDS011;5882;48.818;9.114;2022-12-19T13:31:19;7.95;;;4.88;;
11651;SDS011;5882;48.818;9.114;2022-12-19T13:33:55;11.85;;;6.30;;
11651;SDS011;5882;48.818;9.114;2022-12-19T13:36:48;6.65;;;5.43;;
11651;SDS011;5882;48.818;9.114;2022-12-19T13:39:28;8.20;;;5.32;;
11651;SDS011;5882;48.818;9.114;2022-12-19T13:42:05;6.90;;;5.13;;
11651;SDS011;5882;48.818;9.114;2022-12-19T13:44:56;6.85;;;4.65;;
11651;SDS011;5882;48.818;9.114;2022-12-19T13:47:26;6.13;;;4.78;;
11651;SDS011;5882;48.818;9.114;2022-12-19T13:49:57;6.30;;;4.20;;
11651;SDS011;5882;48.818;9.114;2022-12-19T13:52:28;7.25;;;5.05;;
11651;SDS011;5882;48.818;9.114;2022-12-19T13:54:58;5.85;;;4.45;;
11651;SDS011;5882;48.818;9.114;2022-12-19T13:57:25;6.00;;;4.07;;
11651;SDS011;5882;48.818;9.114;2022-12-19T13:59:56;4.35;;;3.55;;
11651;SDS011;5882;48.818;9.114;2022-12-19T14:02:28;4.00;;;3.42;;
11651;SDS011;5882;48.818;9.114;2022-12-19T14:04:55;4.05;;;2.67;;
11651;SDS011;5882;48.818;9.114;2022-12-19T14:07:36;3.65;;;2.95;;
11651;SDS011;5882;48.818;9.114;2022-12-19T14:10:14;3.90;;;3.25;;
11651;SDS011;5882;48.818;9.114;2022-12-19T14:12:43;3.78;;;2.92;;
11651;SDS011;5882;48.818;9.114;2022-12-19T14:15:32;3.47;;;2.65;;
11651;SDS011;5882;48.818;9.114;2022-12-19T14:18:00;4.53;;;3.28;;
11651;SDS011;5882;48.818;9.114;2022-12-19T14:20:27;9.73;;;6.05;;
11651;SDS011;5882;48.818;9.114;2022-12-19T14:22:59;4.72;;;3.40;;
11651;SDS011;5882;48.818;9.114;2022-12-19T14:25:34;6.53;;;3.80;;
11651;SDS011;5882;48.818;9.114;2022-12-19T14:28:05;4.70;;;3.72;;
11651;SDS011;5882;48.818;9.114;2022-12-19T14:30:34;4.07;;;3.50;;
11651;SDS011;5882;48.818;9.114;2022-12-19T14:33:06;5.88;;;3.50;;
11651;SDS011;5882;48.818;9.114;2022-12-19T14:35:36;7.53;;;3.90;;
11651;SDS011;5882;48.818;9.114;2022-12-19T14:38:05;5.45;;;4.13;;
11651;SDS011;5882;48.818;9.114;2022-12-19T14:40:32;4.63;;;3.88;;
11651;SDS011;5882;48.818;9.114;2022-12-19T14:43:03;6.03;;;4.15;;
11651;SDS011;5882;48.818;9.114;2022-12-19T14:45:47;6.80;;;3.90;;
11651;SDS011;5882;48.818;9.114;2022-12-19T14:48:24;5.60;;;4.53;;
11651;SDS011;5882;48.818;9.114;2022-12-19T14:51:00;8.75;;;4.60;;
11651;SDS011;5882;48.818;9.114;2022-12-19T14:53:32;7.05;;;4.28;;
11651;SDS011;5882;48.818;9.114;2022-12-19T14:56:02;5.85;;;3.88;;
11651;SDS011;5882;48.818;9.114;2022-12-19T14:58:30;3.83;;;2.92;;
11651;SDS011;5882;48.818;9.114;2022-12-19T15:00:58;4.57;;;3.28;;
11651;SDS011;5882;48.818;9.114;2022-12-19T15:03:26;5.28;;;3.25;;
11651;SDS011;5882;48.818;9.114;2022-12-19T15:06:01;6.28;;;3.22;;
11651;SDS011;5882;48.818;9.114;2022-12-19T15:08:31;3.70;;;2.92;;
11651;SDS011;5882;48.818;9.114;2022-12-19T15:10:59;3.00;;;2.40;;
11651;SDS011;5882;48.818;9.114;2022-12-19T15:13:50;4.20;;;2.75;;
11651;SDS011;5882;48.818;9.114;2022-12-19T15:16:22;3.90;;;2.90;;
11651;SDS011;5882;48.818;9.114;2022-12-19T15:18:48;3.00;;;2.67;;
11651;SDS011;5882;48.818;9.114;2022-12-19T15:21:16;4.18;;;3.40;;
11651;SDS011;5882;48.818;9.114;2022-12-19T15:23:44;4.05;;;3.03;;
11651;SDS011;5882;48.818;9.114;2022-12-19T15:26:11;4.90;;;3.25;;
11651;SDS011;5882;48.818;9.114;2022-12-19T15:28:39;3.17;;;2.90;;
11651;SDS011;5882;48.818;9.114;2022-12-19T15:31:09;3.97;;;3.10;;
11651;SDS011;5882;48.818;9.114;2022-12-19T15:33:38;3.08;;;2.55;;
11651;SDS011;5882;48.818;9.114;2022-12-19T15:36:06;6.57;;;3.40;;
11651;SDS011;5882;48.818;9.114;2022-12-19T15:38:33;4.47;;;3.03;;
11651;SDS011;5882;48.818;9.114;2022-12-19T15:41:04;3.88;;;3.22;;
11651;SDS011;5882;48.818;9.114;2022-12-19T15:43:31;4.32;;;3.45;;
11651;SDS011;5882;48.818;9.114;2022-12-19T15:45:58;4.07;;;3.42;;